createdAt,value
2024-02-04T00:00:25.747Z,1.58
2024-02-04T00:02:52.527Z,2.45
2024-02-04T00:05:19.949Z,1.63
2024-02-04T00:07:49.974Z,2.00
2024-02-04T00:10:18.736Z,1.70
2024-02-04T00:12:46.124Z,2.00
2024-02-04T00:15:12.975Z,1.55
2024-02-04T00:17:40.164Z,1.92
2024-02-04T00:20:08.935Z,1.50
2024-02-04T00:22:35.716Z,2.10
2024-02-04T00:25:06.333Z,2.15
2024-02-04T00:27:34.307Z,2.22
2024-02-04T00:30:01.707Z,1.77
2024-02-04T00:32:28.593Z,1.60
2024-02-04T00:34:55.659Z,2.15
2024-02-04T00:37:22.390Z,2.08
2024-02-04T00:39:49.538Z,1.70
2024-02-04T00:42:16.245Z,1.38
2024-02-04T00:44:42.963Z,2.00
2024-02-04T00:47:09.784Z,1.90
2024-02-04T00:49:36.594Z,1.70
2024-02-04T00:52:03.780Z,2.30
2024-02-04T00:54:30.853Z,2.00
2024-02-04T00:56:58.595Z,1.95
2024-02-04T00:59:25.422Z,1.92
2024-02-04T01:01:52.375Z,1.83
2024-02-04T01:04:19.365Z,1.40
2024-02-04T01:06:56.314Z,1.70
2024-02-04T01:09:28.370Z,1.90
2024-02-04T01:11:55.272Z,2.10
2024-02-04T01:14:22.081Z,1.40
2024-02-04T01:16:48.917Z,1.70
2024-02-04T01:19:16.029Z,1.15
2024-02-04T01:21:42.927Z,1.60
2024-02-04T01:24:09.861Z,1.60
2024-02-04T01:26:36.575Z,1.58
2024-02-04T01:29:03.393Z,1.63
2024-02-04T01:31:30.399Z,1.88
2024-02-04T01:33:57.403Z,1.80
2024-02-04T01:36:24.322Z,1.70
2024-02-04T01:38:51.194Z,1.38
2024-02-04T01:41:17.904Z,1.40
2024-02-04T01:43:44.877Z,1.23
2024-02-04T01:46:12.204Z,1.10
2024-02-04T01:48:39.304Z,1.52
2024-02-04T01:51:06.754Z,1.63
2024-02-04T01:53:35.205Z,1.38
2024-02-04T01:56:02.732Z,1.60
2024-02-04T01:58:29.654Z,1.65
2024-02-04T02:00:56.781Z,1.70
2024-02-04T02:03:24.626Z,1.30
2024-02-04T02:05:52.588Z,1.45
2024-02-04T02:08:22.106Z,1.45
2024-02-04T02:10:50.491Z,1.77
2024-02-04T02:13:30.400Z,1.50
2024-02-04T02:16:04.605Z,1.73
2024-02-04T02:19:01.874Z,1.85
2024-02-04T02:21:48.061Z,1.10
2024-02-04T02:24:30.547Z,1.40
2024-02-04T02:26:59.965Z,1.42
2024-02-04T02:29:26.753Z,1.80
2024-02-04T02:31:56.182Z,1.50
2024-02-04T02:34:34.491Z,1.25
2024-02-04T02:37:20.214Z,1.80
2024-02-04T02:40:10.032Z,1.02
2024-02-04T02:42:39.258Z,1.08
2024-02-04T02:45:08.838Z,1.52
2024-02-04T02:47:36.180Z,1.17
2024-02-04T02:50:03.300Z,1.65
2024-02-04T02:52:30.420Z,1.67
2024-02-04T02:54:57.251Z,1.70
2024-02-04T02:57:24.126Z,1.50
2024-02-04T02:59:50.924Z,1.02
2024-02-04T03:02:17.763Z,1.42
2024-02-04T03:04:44.798Z,1.05
2024-02-04T03:07:11.711Z,1.58
2024-02-04T03:09:38.536Z,1.33
2024-02-04T03:12:05.783Z,1.38
2024-02-04T03:14:32.869Z,1.40
2024-02-04T03:17:00.056Z,1.77
2024-02-04T03:19:26.823Z,1.40
2024-02-04T03:21:53.643Z,1.38
2024-02-04T03:24:20.679Z,1.80
2024-02-04T03:26:47.482Z,1.63
2024-02-04T03:29:14.255Z,1.45
2024-02-04T03:31:40.985Z,1.25
2024-02-04T03:34:08.119Z,1.35
2024-02-04T03:36:35.210Z,1.63
2024-02-04T03:39:03.461Z,1.60
2024-02-04T03:41:30.399Z,1.55
2024-02-04T03:43:57.158Z,1.40
2024-02-04T03:46:23.882Z,1.90
2024-02-04T03:48:50.722Z,1.13
2024-02-04T03:51:19.122Z,1.25
2024-02-04T03:53:46.769Z,2.00
2024-02-04T03:56:13.995Z,1.50
2024-02-04T03:58:40.890Z,1.92
2024-02-04T04:01:11.669Z,1.80
2024-02-04T04:03:44.452Z,1.50
2024-02-04T04:06:11.988Z,1.50
2024-02-04T04:08:39.574Z,1.30
2024-02-04T04:11:08.690Z,2.20
2024-02-04T04:13:36.594Z,1.52
2024-02-04T04:16:04.597Z,2.08
2024-02-04T04:18:31.709Z,1.50
2024-02-04T04:20:58.714Z,1.80
2024-02-04T04:23:25.578Z,1.90
2024-02-04T04:25:52.434Z,2.10
2024-02-04T04:28:19.369Z,1.70
2024-02-04T04:30:46.382Z,1.63
2024-02-04T04:33:13.727Z,1.90
2024-02-04T04:35:40.692Z,1.90
2024-02-04T04:38:07.582Z,2.03
2024-02-04T04:40:34.433Z,1.98
2024-02-04T04:43:01.344Z,2.03
2024-02-04T04:45:28.274Z,2.15
2024-02-04T04:47:55.903Z,1.92
2024-02-04T04:50:23.311Z,1.80
2024-02-04T04:52:50.781Z,2.38
2024-02-04T04:55:17.901Z,2.40
2024-02-04T04:57:44.796Z,1.90
2024-02-04T05:00:14.223Z,2.05
2024-02-04T05:02:45.091Z,2.20
2024-02-04T05:05:13.062Z,2.70
2024-02-04T05:07:40.719Z,2.50
2024-02-04T05:10:08.324Z,2.95
2024-02-04T05:12:36.921Z,2.45
2024-02-04T05:15:04.114Z,2.97
2024-02-04T05:17:30.824Z,2.20
2024-02-04T05:19:57.741Z,2.53
2024-02-04T05:22:24.568Z,2.20
2024-02-04T05:24:51.413Z,2.08
2024-02-04T05:27:18.213Z,2.40
2024-02-04T05:29:46.166Z,2.17
2024-02-04T05:32:13.077Z,2.45
2024-02-04T05:34:39.982Z,2.58
2024-02-04T05:37:08.356Z,2.25
2024-02-04T05:39:35.219Z,2.08
2024-02-04T05:42:02.469Z,2.20
2024-02-04T05:44:29.313Z,2.72
2024-02-04T05:46:56.576Z,3.22
2024-02-04T05:49:23.584Z,2.60
2024-02-04T05:51:50.470Z,2.55
2024-02-04T05:54:18.448Z,2.75
2024-02-04T05:56:45.340Z,2.45
2024-02-04T05:59:18.749Z,2.45
2024-02-04T06:02:05.585Z,2.38
2024-02-04T06:04:41.902Z,2.25
2024-02-04T06:07:15.185Z,2.20
2024-02-04T06:10:07.869Z,2.30
2024-02-04T06:12:37.907Z,1.70
2024-02-04T06:15:25.339Z,1.90
2024-02-04T06:18:05.014Z,1.95
2024-02-04T06:20:35.698Z,1.85
2024-02-04T06:23:06.274Z,1.70
2024-02-04T06:25:36.462Z,1.58
2024-02-04T06:28:03.455Z,2.10
2024-02-04T06:30:30.426Z,1.60
2024-02-04T06:32:58.055Z,2.30
2024-02-04T06:35:24.887Z,2.38
2024-02-04T06:37:51.653Z,1.58
2024-02-04T06:40:18.533Z,1.80
2024-02-04T06:42:45.668Z,1.88
2024-02-04T06:45:12.722Z,2.20
2024-02-04T06:47:39.690Z,2.20
2024-02-04T06:50:08.370Z,2.05
2024-02-04T06:52:35.241Z,1.80
2024-02-04T06:55:02.074Z,1.73
2024-02-04T06:57:29.024Z,1.38
2024-02-04T06:59:55.804Z,1.50
2024-02-04T07:02:22.826Z,1.63
2024-02-04T07:04:52.887Z,1.77
2024-02-04T07:07:21.483Z,1.95
2024-02-04T07:09:48.426Z,1.85
2024-02-04T07:12:15.210Z,1.88
2024-02-04T07:14:42.010Z,1.70
2024-02-04T07:17:09.057Z,1.90
2024-02-04T07:19:36.890Z,1.77
2024-02-04T07:22:53.304Z,1.45
2024-02-04T07:25:20.004Z,1.60
2024-02-04T07:27:46.895Z,2.08
2024-02-04T07:30:14.358Z,1.70
2024-02-04T07:32:41.259Z,2.63
2024-02-04T07:35:10.536Z,1.20
2024-02-04T07:37:37.672Z,2.28
2024-02-04T07:40:06.581Z,1.67
2024-02-04T07:42:33.849Z,1.75
2024-02-04T07:45:00.632Z,1.80
2024-02-04T07:47:27.389Z,1.58
2024-02-04T07:49:54.286Z,2.03
2024-02-04T07:52:21.335Z,2.13
2024-02-04T07:54:48.130Z,2.10
2024-02-04T07:57:14.861Z,1.83
2024-02-04T07:59:41.565Z,1.80
2024-02-04T08:02:08.369Z,1.88
2024-02-04T08:04:35.399Z,2.22
2024-02-04T08:07:03.080Z,1.77
2024-02-04T08:09:29.981Z,2.08
2024-02-04T08:11:59.699Z,2.25
2024-02-04T08:14:26.805Z,2.30
2024-02-04T08:16:53.538Z,2.30
2024-02-04T08:19:20.433Z,2.50
2024-02-04T08:21:47.480Z,2.42
2024-02-04T08:24:14.591Z,2.03
2024-02-04T08:26:41.410Z,2.45
2024-02-04T08:29:08.209Z,2.45
2024-02-04T08:31:35.138Z,2.60
2024-02-04T08:34:02.707Z,2.33
2024-02-04T08:36:32.273Z,2.60
2024-02-04T08:39:12.728Z,2.45
2024-02-04T08:41:40.631Z,2.40
2024-02-04T08:44:16.035Z,3.25
2024-02-04T08:46:52.296Z,2.78
2024-02-04T08:49:19.463Z,2.58
2024-02-04T08:51:49.662Z,3.08
2024-02-04T08:54:39.806Z,3.35
2024-02-04T08:57:14.028Z,3.28
2024-02-04T08:59:53.051Z,3.88
2024-02-04T09:02:20.869Z,3.28
2024-02-04T09:04:48.240Z,2.90
2024-02-04T09:07:15.286Z,3.70
2024-02-04T09:09:42.597Z,3.42
2024-02-04T09:12:10.564Z,2.50
2024-02-04T09:14:37.452Z,3.10
2024-02-04T09:17:05.577Z,3.05
2024-02-04T09:19:32.597Z,3.08
2024-02-04T09:22:02.680Z,3.05
2024-02-04T09:24:30.908Z,2.95
2024-02-04T09:26:57.838Z,3.08
2024-02-04T09:29:24.852Z,3.33
2024-02-04T09:31:53.158Z,3.08
2024-02-04T09:34:22.025Z,3.30
2024-02-04T09:36:49.606Z,2.88
2024-02-04T09:39:16.707Z,2.97
2024-02-04T09:41:44.892Z,2.92
2024-02-04T09:44:13.960Z,2.80
2024-02-04T09:46:42.030Z,3.20
2024-02-04T09:49:10.404Z,2.88
2024-02-04T09:51:37.294Z,2.47
2024-02-04T09:54:07.550Z,2.70
2024-02-04T09:56:36.002Z,2.38
2024-02-04T09:59:02.922Z,2.45
2024-02-04T10:01:30.262Z,3.30
2024-02-04T10:03:57.422Z,2.65
2024-02-04T10:06:24.858Z,2.30
2024-02-04T10:08:52.338Z,3.00
2024-02-04T10:11:19.446Z,3.13
2024-02-04T10:13:48.169Z,3.72
2024-02-04T10:16:17.533Z,2.80
2024-02-04T10:18:48.744Z,2.67
2024-02-04T10:21:20.609Z,2.83
2024-02-04T10:23:50.856Z,2.03
2024-02-04T10:26:18.650Z,2.60
2024-02-04T10:28:49.732Z,2.08
2024-02-04T10:31:17.127Z,3.50
2024-02-04T10:33:45.476Z,2.33
2024-02-04T10:36:12.820Z,2.50
2024-02-04T10:38:39.720Z,1.88
2024-02-04T10:41:08.059Z,2.63
2024-02-04T10:43:35.992Z,2.83
2024-02-04T10:46:20.445Z,2.17
2024-02-04T10:48:55.845Z,2.22
2024-02-04T10:51:30.506Z,2.28
2024-02-04T10:53:59.384Z,3.33
2024-02-04T10:56:45.423Z,2.55
2024-02-04T10:59:18.884Z,2.05
2024-02-04T11:01:49.730Z,2.72
2024-02-04T11:04:18.487Z,2.33
2024-02-04T11:06:46.387Z,2.78
2024-02-04T11:09:15.363Z,2.70
2024-02-04T11:11:43.222Z,2.60
2024-02-04T11:14:17.356Z,2.20
2024-02-04T11:16:50.000Z,2.50
2024-02-04T11:19:46.135Z,2.40
2024-02-04T11:22:41.090Z,2.03
2024-02-04T11:25:26.646Z,2.40
2024-02-04T11:27:54.049Z,2.30
2024-02-04T11:30:21.028Z,3.15
2024-02-04T11:32:48.099Z,2.45
2024-02-04T11:35:15.838Z,2.47
2024-02-04T11:37:43.896Z,2.40
2024-02-04T11:40:17.227Z,2.45
2024-02-04T11:42:44.728Z,2.75
2024-02-04T11:45:14.047Z,2.60
2024-02-04T11:47:41.530Z,2.35
2024-02-04T11:50:11.605Z,1.95
2024-02-04T11:52:40.313Z,2.67
2024-02-04T11:55:08.560Z,2.25
2024-02-04T11:57:36.206Z,2.20
2024-02-04T12:00:06.921Z,2.25
2024-02-04T12:02:34.299Z,2.20
2024-02-04T12:05:04.363Z,2.25
2024-02-04T12:07:31.451Z,1.95
2024-02-04T12:09:58.591Z,2.17
2024-02-04T12:12:27.561Z,2.33
2024-02-04T12:14:55.269Z,2.40
2024-02-04T12:17:22.563Z,2.72
2024-02-04T12:19:51.456Z,2.50
2024-02-04T12:22:20.944Z,2.00
2024-02-04T12:24:47.704Z,2.20
2024-02-04T12:27:18.350Z,1.92
2024-02-04T12:29:45.605Z,2.30
2024-02-04T12:32:15.134Z,2.42
2024-02-04T12:34:43.244Z,2.38
2024-02-04T12:37:11.405Z,2.40
2024-02-04T12:39:38.340Z,2.67
2024-02-04T12:42:05.823Z,1.88
2024-02-04T12:44:33.203Z,1.83
2024-02-04T12:47:00.130Z,2.40
2024-02-04T12:49:27.382Z,2.03
2024-02-04T12:52:05.173Z,2.17
2024-02-04T12:54:32.167Z,2.85
2024-02-04T12:57:01.697Z,2.13
2024-02-04T12:59:32.055Z,1.98
2024-02-04T13:02:07.819Z,2.08
2024-02-04T13:04:40.345Z,2.10
2024-02-04T13:07:15.750Z,2.08
2024-02-04T13:09:43.277Z,2.58
2024-02-04T13:12:11.683Z,1.90
2024-02-04T13:14:43.563Z,2.42
2024-02-04T13:17:11.090Z,2.33
2024-02-04T13:19:39.488Z,2.53
2024-02-04T13:22:12.393Z,2.70
2024-02-04T13:24:40.758Z,2.75
2024-02-04T13:27:08.966Z,2.00
2024-02-04T13:29:36.514Z,2.30
2024-02-04T13:32:03.487Z,2.50
2024-02-04T13:34:30.785Z,2.00
2024-02-04T13:36:57.817Z,2.50
2024-02-04T13:39:24.679Z,2.15
2024-02-04T13:41:51.557Z,2.42
2024-02-04T13:44:18.533Z,1.70
2024-02-04T13:46:45.482Z,2.17
2024-02-04T13:49:13.565Z,2.47
2024-02-04T13:51:44.709Z,2.10
2024-02-04T13:54:16.647Z,2.33
2024-02-04T13:56:44.371Z,2.58
2024-02-04T13:59:11.196Z,2.22
2024-02-04T14:01:38.505Z,1.65
2024-02-04T14:04:05.643Z,2.50
2024-02-04T14:06:32.742Z,2.42
2024-02-04T14:08:59.708Z,1.98
2024-02-04T14:11:26.598Z,2.58
2024-02-04T14:13:53.456Z,2.08
2024-02-04T14:16:20.318Z,2.50
2024-02-04T14:18:47.944Z,2.35
2024-02-04T14:21:15.824Z,2.45
2024-02-04T14:23:43.017Z,2.20
2024-02-04T14:26:21.169Z,1.70
2024-02-04T14:28:48.467Z,2.42
2024-02-04T14:31:15.549Z,2.30
2024-02-04T14:33:43.596Z,2.20
2024-02-04T14:36:11.592Z,2.70
2024-02-04T14:38:39.980Z,2.45
2024-02-04T14:41:09.817Z,2.30
2024-02-04T14:43:36.867Z,2.50
2024-02-04T14:46:03.965Z,2.17
2024-02-04T14:48:31.073Z,2.92
2024-02-04T14:50:59.787Z,2.30
2024-02-04T14:53:26.879Z,2.45
2024-02-04T14:55:54.234Z,3.10
2024-02-04T14:58:21.147Z,2.53
2024-02-04T15:00:49.306Z,2.47
2024-02-04T15:03:16.466Z,2.00
2024-02-04T15:05:43.429Z,1.83
2024-02-04T15:08:10.411Z,2.03
2024-02-04T15:10:38.587Z,2.47
2024-02-04T15:13:05.834Z,2.60
2024-02-04T15:15:33.126Z,2.50
2024-02-04T15:18:00.211Z,2.22
2024-02-04T15:20:27.399Z,1.63
2024-02-04T15:22:54.652Z,2.28
2024-02-04T15:25:21.815Z,2.30
2024-02-04T15:27:53.099Z,2.38
2024-02-04T15:30:22.477Z,2.33
2024-02-04T15:32:52.487Z,2.13
2024-02-04T15:35:19.913Z,3.13
2024-02-04T15:37:48.019Z,2.17
2024-02-04T15:40:15.186Z,2.55
2024-02-04T15:42:43.232Z,1.90
2024-02-04T15:45:10.247Z,2.17
2024-02-04T15:47:45.532Z,2.03
2024-02-04T15:50:13.147Z,2.42
2024-02-04T15:52:40.397Z,2.72
2024-02-04T15:55:07.990Z,2.22
2024-02-04T15:57:37.693Z,2.10
2024-02-04T16:00:12.763Z,1.85
2024-02-04T16:02:40.027Z,1.95
2024-02-04T16:05:07.572Z,2.42
2024-02-04T16:07:36.890Z,2.60
2024-02-04T16:10:04.848Z,2.65
2024-02-04T16:12:31.890Z,2.50
2024-02-04T16:15:00.121Z,2.60
2024-02-04T16:17:34.651Z,3.03
2024-02-04T16:20:02.322Z,2.95
2024-02-04T16:22:29.197Z,2.67
2024-02-04T16:24:56.166Z,2.35
2024-02-04T16:27:23.635Z,3.30
2024-02-04T16:29:50.571Z,2.72
2024-02-04T16:32:17.339Z,2.33
2024-02-04T16:34:44.420Z,3.10
2024-02-04T16:37:11.890Z,2.65
2024-02-04T16:39:40.543Z,3.10
2024-02-04T16:42:09.955Z,2.78
2024-02-04T16:44:36.967Z,2.72
2024-02-04T16:47:04.125Z,2.22
2024-02-04T16:49:32.151Z,2.85
2024-02-04T16:51:59.564Z,2.47
2024-02-04T16:54:32.142Z,2.60
2024-02-04T16:56:59.721Z,2.30
2024-02-04T16:59:26.683Z,2.28
2024-02-04T17:01:55.326Z,3.00
2024-02-04T17:04:23.967Z,2.45
2024-02-04T17:06:51.512Z,3.35
2024-02-04T17:09:24.964Z,3.63
2024-02-04T17:11:53.005Z,2.58
2024-02-04T17:14:27.801Z,3.00
2024-02-04T17:17:23.790Z,2.58
2024-02-04T17:20:16.256Z,2.65
2024-02-04T17:22:44.922Z,2.63
2024-02-04T17:25:19.407Z,2.92
2024-02-04T17:27:50.698Z,2.50
2024-02-04T17:30:17.835Z,3.25
2024-02-04T17:32:59.339Z,2.70
2024-02-04T17:35:31.341Z,2.72
2024-02-04T17:38:05.712Z,3.00
2024-02-04T17:40:55.104Z,2.90
2024-02-04T17:43:22.373Z,2.67
2024-02-04T17:45:50.063Z,2.80
2024-02-04T17:48:17.029Z,2.95
2024-02-04T17:50:47.825Z,3.05
2024-02-04T17:53:28.276Z,3.38
2024-02-04T17:55:59.828Z,2.63
2024-02-04T17:58:29.300Z,3.25
2024-02-04T18:00:56.483Z,2.85
2024-02-04T18:03:23.586Z,3.13
2024-02-04T18:05:50.748Z,2.88
2024-02-04T18:08:17.964Z,2.95
2024-02-04T18:10:46.205Z,3.53
2024-02-04T18:13:16.110Z,2.70
2024-02-04T18:15:46.164Z,3.15
2024-02-04T18:18:16.041Z,3.50
2024-02-04T18:20:43.020Z,3.20
2024-02-04T18:23:11.120Z,3.20
2024-02-04T18:25:40.242Z,3.78
2024-02-04T18:28:07.499Z,2.92
2024-02-04T18:30:34.417Z,3.20
2024-02-04T18:33:01.862Z,2.53
2024-02-04T18:35:28.744Z,2.53
2024-02-04T18:37:56.439Z,3.33
2024-02-04T18:40:31.829Z,3.40
2024-02-04T18:43:04.444Z,3.10
2024-02-04T18:45:31.780Z,3.33
2024-02-04T18:47:59.982Z,3.55
2024-02-04T18:50:32.743Z,3.55
2024-02-04T18:53:02.882Z,4.45
2024-02-04T18:55:29.827Z,3.97
2024-02-04T18:58:10.141Z,3.92
2024-02-04T19:00:42.616Z,4.32
2024-02-04T19:03:28.439Z,3.95
2024-02-04T19:06:01.204Z,3.78
2024-02-04T19:08:28.994Z,3.40
2024-02-04T19:11:07.808Z,3.25
2024-02-04T19:13:39.548Z,3.80
2024-02-04T19:16:08.841Z,3.50
2024-02-04T19:18:43.928Z,3.70
2024-02-04T19:21:14.356Z,3.50
2024-02-04T19:23:41.374Z,3.80
2024-02-04T19:26:13.959Z,3.38
2024-02-04T19:28:40.923Z,3.28
2024-02-04T19:31:12.004Z,3.63
2024-02-04T19:33:41.784Z,4.18
2024-02-04T19:36:09.113Z,3.35
2024-02-04T19:38:44.908Z,3.88
2024-02-04T19:41:12.259Z,3.65
2024-02-04T19:43:39.175Z,3.97
2024-02-04T19:46:06.920Z,4.10
2024-02-04T19:48:46.111Z,3.70
2024-02-04T19:51:18.213Z,3.50
2024-02-04T19:53:48.750Z,3.78
2024-02-04T19:56:16.804Z,3.92
2024-02-04T19:58:44.173Z,3.65
2024-02-04T20:01:12.564Z,4.22
2024-02-04T20:03:39.525Z,4.07
2024-02-04T20:06:11.136Z,4.30
2024-02-04T20:09:06.128Z,4.70
2024-02-04T20:11:33.798Z,4.38
2024-02-04T20:14:07.334Z,4.00
2024-02-04T20:16:34.330Z,4.50
2024-02-04T20:19:05.034Z,4.05
2024-02-04T20:21:54.729Z,4.78
2024-02-04T20:24:21.938Z,4.75
2024-02-04T20:26:52.310Z,4.90
2024-02-04T20:29:19.827Z,4.63
2024-02-04T20:31:51.058Z,4.65
2024-02-04T20:34:25.713Z,5.28
2024-02-04T20:36:52.916Z,6.10
2024-02-04T20:39:20.138Z,5.65
2024-02-04T20:41:51.110Z,6.38
2024-02-04T20:44:17.920Z,5.78
2024-02-04T20:46:56.216Z,6.38
2024-02-04T20:49:23.413Z,5.80
2024-02-04T20:52:26.383Z,4.90
2024-02-04T20:55:18.131Z,5.60
2024-02-04T20:57:53.990Z,4.65
2024-02-04T21:00:21.006Z,3.30
2024-02-04T21:02:53.990Z,3.65
2024-02-04T21:05:21.326Z,3.38
2024-02-04T21:07:51.493Z,3.75
2024-02-04T21:10:38.749Z,3.13
2024-02-04T21:13:09.220Z,3.10
2024-02-04T21:15:38.788Z,3.40
2024-02-04T21:20:47.304Z,3.60
2024-02-04T21:26:47.148Z,4.00
2024-02-04T21:29:39.884Z,3.72
2024-02-04T21:32:14.783Z,3.60
2024-02-04T21:35:30.827Z,3.60
2024-02-04T21:38:02.472Z,3.72
2024-02-04T21:40:33.824Z,3.30
2024-02-04T21:43:06.199Z,3.45
2024-02-04T21:45:33.270Z,3.03
2024-02-04T21:48:16.695Z,3.03
2024-02-04T21:53:35.333Z,3.05
2024-02-04T21:56:10.850Z,2.70
2024-02-04T21:58:47.630Z,2.40
2024-02-04T22:01:17.702Z,2.60
2024-02-04T22:03:53.190Z,2.60
2024-02-04T22:06:22.673Z,1.88
2024-02-04T22:08:56.790Z,1.77
2024-02-04T22:11:23.837Z,1.85
2024-02-04T22:13:58.318Z,1.52
2024-02-04T22:16:40.159Z,1.70
2024-02-04T22:19:07.370Z,1.70
2024-02-04T22:21:37.910Z,2.08
2024-02-04T22:24:14.124Z,2.30
2024-02-04T22:26:40.958Z,2.45
2024-02-04T22:29:08.024Z,2.90
2024-02-04T22:31:35.993Z,3.30
2024-02-04T22:34:03.037Z,2.70
2024-02-04T22:36:30.073Z,2.47
2024-02-04T22:38:57.057Z,2.95
2024-02-04T22:41:26.346Z,2.47
2024-02-04T22:43:56.046Z,2.45
2024-02-04T22:46:25.004Z,3.00
2024-02-04T22:48:52.975Z,2.63
2024-02-04T22:51:20.224Z,2.97
2024-02-04T22:53:47.200Z,3.15
2024-02-04T22:56:14.291Z,3.75
2024-02-04T22:58:42.195Z,3.35
2024-02-04T23:01:09.290Z,3.28
2024-02-04T23:03:36.125Z,2.92
2024-02-04T23:06:02.908Z,4.32
2024-02-04T23:08:31.098Z,3.80
2024-02-04T23:11:00.078Z,3.63
2024-02-04T23:13:28.438Z,4.00
2024-02-04T23:15:58.280Z,3.90
2024-02-04T23:18:25.444Z,4.25
2024-02-04T23:20:52.258Z,3.92
2024-02-04T23:23:24.660Z,5.00
2024-02-04T23:25:51.677Z,4.15
2024-02-04T23:28:18.555Z,5.45
2024-02-04T23:30:45.897Z,4.25
2024-02-04T23:33:13.178Z,4.50
2024-02-04T23:35:39.985Z,4.78
2024-02-04T23:38:06.917Z,5.10
2024-02-04T23:40:33.783Z,4.57
2024-02-04T23:43:00.974Z,4.43
2024-02-04T23:45:30.452Z,4.55
2024-02-04T23:47:57.467Z,4.28
2024-02-04T23:50:24.243Z,4.75
2024-02-04T23:52:52.109Z,4.47
2024-02-04T23:55:19.091Z,4.43
2024-02-04T23:57:46.061Z,4.10
